Time;durP1;ratioP1;P1;durP2;ratioP2;P2;SDS_P1;SDS_P2;PMS_P1;PMS_P2;Temp;Humidity;BMP_temperature;BMP_pressure;BME280_temperature;BME280_humidity;BME280_pressure;Samples;Min_cycle;Max_cycle;Signal;HPM_P1;HPM_P2
2021/04/04 00:00:14;;;;;;;4.23;2.57;;;;;;;4.94;67.79;101035.59;638354;224;24870;-75
2021/04/04 00:02:42;;;;;;;13.20;3.20;;;;;;;4.96;67.51;101031.17;639743;224;24840;-75
2021/04/04 00:05:11;;;;;;;5.90;3.03;;;;;;;4.87;67.94;101036.02;639057;224;24829;-76
2021/04/04 00:07:39;;;;;;;7.53;2.80;;;;;;;4.67;69.14;101027.69;638039;224;24919;-75
2021/04/04 00:10:08;;;;;;;5.72;2.42;;;;;;;5.17;67.54;101023.91;634328;224;32907;-75
2021/04/04 00:12:36;;;;;;;4.42;2.75;;;;;;;5.47;66.12;101026.87;632975;221;32847;-75
2021/04/04 00:15:06;;;;;;;7.57;3.17;;;;;;;4.80;68.01;101026.53;621450;229;23800;-76
2021/04/04 00:17:34;;;;;;;7.10;2.73;;;;;;;4.61;69.47;101024.16;623643;226;24803;-75
2021/04/04 00:20:01;;;;;;;8.43;3.13;;;;;;;4.60;69.15;101031.97;624377;229;24827;-74
2021/04/04 00:22:29;;;;;;;9.33;2.97;;;;;;;4.37;69.33;101034.11;628485;228;24859;-76
2021/04/04 00:24:57;;;;;;;4.87;3.30;;;;;;;4.36;70.42;101038.03;639421;224;26042;-75
2021/04/04 00:27:25;;;;;;;5.33;2.80;;;;;;;4.63;68.67;101033.08;640714;220;24802;-75
2021/04/04 00:29:53;;;;;;;3.73;2.50;;;;;;;4.72;68.33;101033.40;639372;223;24865;-75
2021/04/04 00:32:21;;;;;;;7.73;3.17;;;;;;;4.86;67.66;101025.34;640853;223;24833;-77
2021/04/04 00:34:49;;;;;;;5.80;3.10;;;;;;;4.88;67.90;101026.08;641516;223;24824;-75
2021/04/04 00:37:17;;;;;;;6.83;2.60;;;;;;;4.94;68.10;101025.28;641146;219;24927;-78
2021/04/04 00:39:45;;;;;;;7.50;3.40;;;;;;;5.00;67.69;101018.46;618025;229;33015;-74
2021/04/04 00:42:12;;;;;;;5.80;2.87;;;;;;;4.73;67.87;101019.59;625833;229;23746;-75
2021/04/04 00:44:41;;;;;;;6.67;2.93;;;;;;;4.62;69.10;101020.66;639218;224;24803;-75
2021/04/04 00:47:08;;;;;;;4.30;2.97;;;;;;;4.36;70.18;101025.16;637054;224;24839;-74
2021/04/04 00:49:36;;;;;;;6.23;3.10;;;;;;;4.26;70.78;101024.03;622870;229;24888;-75
2021/04/04 00:52:04;;;;;;;5.60;2.70;;;;;;;4.63;69.19;101025.35;628721;225;32857;-75
2021/04/04 00:54:32;;;;;;;4.90;2.90;;;;;;;4.88;68.76;101022.21;632040;225;32858;-77
2021/04/04 00:57:00;;;;;;;5.60;2.93;;;;;;;4.68;68.40;101014.34;634897;223;25889;-76
2021/04/04 00:59:29;;;;;;;7.13;2.77;;;;;;;4.61;68.82;101017.72;637564;224;24851;-75
2021/04/04 01:01:57;;;;;;;3.80;2.50;;;;;;;4.64;69.46;101014.95;620503;229;29040;-75
2021/04/04 01:04:25;;;;;;;3.60;2.50;;;;;;;4.60;69.49;101014.77;639395;224;24798;-75
2021/04/04 01:06:53;;;;;;;5.00;2.60;;;;;;;4.56;69.73;101017.16;624701;226;24980;-77
2021/04/04 01:09:20;;;;;;;5.50;2.63;;;;;;;4.61;69.85;101012.56;625472;229;24807;-75
2021/04/04 01:11:49;;;;;;;4.80;2.50;;;;;;;4.60;69.99;101004.92;633669;226;24892;-74
2021/04/04 01:14:19;;;;;;;3.13;2.40;;;;;;;4.36;70.17;101002.84;635249;225;24840;-75
2021/04/04 01:16:46;;;;;;;4.63;2.30;;;;;;;4.09;70.94;101009.05;631827;224;24852;-75
2021/04/04 01:19:16;;;;;;;5.33;2.40;;;;;;;4.52;69.85;101004.09;626388;225;32871;-75
2021/04/04 01:21:45;;;;;;;7.53;2.70;;;;;;;4.09;71.32;101012.91;634761;225;24847;-75
2021/04/04 01:24:17;;;;;;;3.70;2.20;;;;;;;3.96;71.70;101014.95;634257;225;24850;-75
2021/04/04 01:26:50;;;;;;;3.70;2.20;;;;;;;4.03;71.15;101019.67;637642;225;24828;-74
2021/04/04 01:29:19;;;;;;;6.80;3.05;;;;;;;4.42;70.60;101011.95;633255;224;32725;-74
2021/04/04 01:31:47;;;;;;;4.97;2.70;;;;;;;3.88;71.92;101016.64;625456;229;24856;-75
2021/04/04 01:34:15;;;;;;;4.20;2.50;;;;;;;3.69;72.70;101012.11;636299;225;24880;-75
2021/04/04 01:36:43;;;;;;;9.40;3.17;;;;;;;3.71;72.87;101016.72;626088;225;25095;-75
2021/04/04 01:39:11;;;;;;;7.80;2.83;;;;;;;3.81;72.16;101016.61;625723;229;24878;-76
2021/04/04 01:41:39;;;;;;;4.13;2.20;;;;;;;3.95;71.11;101014.58;641093;222;24794;-78
2021/04/04 01:44:08;;;;;;;7.80;2.93;;;;;;;3.88;71.62;101016.64;627691;229;24802;-75
2021/04/04 01:46:36;;;;;;;3.53;2.57;;;;;;;4.02;71.12;101012.86;641222;223;24821;-75
2021/04/04 01:49:04;;;;;;;8.03;2.73;;;;;;;4.13;70.97;101012.28;642367;223;24795;-74
2021/04/04 01:51:32;;;;;;;6.90;3.07;;;;;;;3.98;71.27;100997.22;623811;229;24901;-75
2021/04/04 01:53:59;;;;;;;5.00;2.90;;;;;;;3.87;71.64;101003.40;635586;224;24867;-75
2021/04/04 01:56:27;;;;;;;5.73;3.47;;;;;;;3.81;71.84;101000.72;624529;228;24891;-78
2021/04/04 01:58:55;;;;;;;6.87;4.10;;;;;;;3.81;72.15;101005.03;624956;229;24805;-78
2021/04/04 02:01:23;;;;;;;3.80;3.00;;;;;;;3.95;71.51;101002.55;626859;228;24826;-75
2021/04/04 02:03:51;;;;;;;5.90;3.33;;;;;;;3.77;71.64;101005.63;641195;223;25085;-74
2021/04/04 02:06:19;;;;;;;4.80;3.00;;;;;;;3.87;71.76;101008.09;624994;226;24796;-78
2021/04/04 02:08:46;;;;;;;4.63;3.57;;;;;;;4.01;72.05;101004.77;639885;224;24797;-76
2021/04/04 02:11:15;;;;;;;4.30;3.10;;;;;;;4.02;72.11;101012.86;639005;224;24788;-74
2021/04/04 02:13:43;;;;;;;4.20;2.83;;;;;;;3.80;72.50;101012.34;641118;223;24789;-75
2021/04/04 02:16:12;;;;;;;6.60;3.10;;;;;;;3.79;73.21;101011.98;626670;229;24791;-74
2021/04/04 02:18:40;;;;;;;5.97;3.57;;;;;;;3.76;73.18;101013.43;640290;223;27980;-75
2021/04/04 02:21:07;;;;;;;4.20;3.00;;;;;;;3.68;73.73;101011.28;640532;224;24829;-75
2021/04/04 02:23:35;;;;;;;4.10;2.67;;;;;;;3.71;72.69;101014.14;639507;224;25321;-74
2021/04/04 02:26:05;;;;;;;5.58;3.00;;;;;;;4.26;71.73;101004.72;635287;224;43386;-75
2021/04/04 02:28:33;;;;;;;3.80;2.63;;;;;;;4.03;71.54;100995.67;638656;221;23705;-75
2021/04/04 02:31:03;;;;;;;6.33;2.90;;;;;;;3.68;72.12;100991.99;625525;229;24795;-75
2021/04/04 02:33:31;;;;;;;7.20;3.20;;;;;;;3.69;73.05;101002.66;627975;228;24843;-75
2021/04/04 02:36:00;;;;;;;7.60;3.57;;;;;;;3.63;73.05;101009.84;625090;229;26959;-75
2021/04/04 02:38:28;;;;;;;9.00;3.30;;;;;;;4.06;71.40;101001.94;622026;224;32809;-75
2021/04/04 02:40:55;;;;;;;6.10;2.70;;;;;;;3.69;72.94;101008.25;629053;228;23738;-75
2021/04/04 02:43:25;;;;;;;5.80;3.03;;;;;;;4.30;71.25;101004.45;619407;229;32707;-75
2021/04/04 02:45:53;;;;;;;9.30;3.70;;;;;;;3.72;72.90;101008.09;624686;229;24792;-74
2021/04/04 02:48:21;;;;;;;5.37;3.00;;;;;;;3.63;72.84;101009.39;626281;225;24798;-76
2021/04/04 02:50:50;;;;;;;12.80;3.60;;;;;;;3.32;72.79;101011.45;638611;223;24846;-75
2021/04/04 02:53:18;;;;;;;4.40;3.30;;;;;;;3.35;73.43;101012.57;641117;223;24804;-75
2021/04/04 02:55:46;;;;;;;6.47;3.20;;;;;;;3.33;72.36;101015.68;641165;223;26977;-75
2021/04/04 02:58:14;;;;;;;9.47;3.73;;;;;;;3.00;74.03;101008.41;640438;219;28034;-78
2021/04/04 03:00:42;;;;;;;7.30;3.13;;;;;;;2.54;76.18;101023.53;641775;224;24799;-74
2021/04/04 03:03:09;;;;;;;5.77;2.77;;;;;;;2.27;77.98;101025.22;641518;224;24784;-75
2021/04/04 03:05:37;;;;;;;6.00;2.83;;;;;;;2.37;77.83;101027.70;626988;228;24846;-76
2021/04/04 03:08:06;;;;;;;5.67;3.30;;;;;;;2.52;77.91;101031.73;632091;225;24855;-76
2021/04/04 03:10:34;;;;;;;5.43;2.60;;;;;;;2.59;77.24;101029.26;639273;223;24806;-74
2021/04/04 03:13:01;;;;;;;6.93;2.93;;;;;;;2.59;77.43;101027.52;639381;224;25831;-75
2021/04/04 03:15:29;;;;;;;6.40;2.95;;;;;;;3.35;75.63;101024.14;620080;229;32689;-77
2021/04/04 03:17:57;;;;;;;7.17;2.90;;;;;;;2.77;76.09;101017.25;628472;224;23704;-78
2021/04/04 03:20:25;;;;;;;7.50;3.30;;;;;;;2.47;76.90;101024.70;641275;223;24792;-74
2021/04/04 03:22:53;;;;;;;6.67;3.30;;;;;;;2.18;78.21;101028.65;639036;224;24776;-77
2021/04/04 03:25:22;;;;;;;4.33;2.57;;;;;;;2.15;79.15;101031.37;626782;229;24780;-74
2021/04/04 03:27:50;;;;;;;8.93;3.30;;;;;;;2.36;78.44;101036.31;622699;226;24874;-74
2021/04/04 03:32:56;;;;;;;6.00;3.10;;;;;;;2.82;77.29;101035.41;641198;224;24793;-75
2021/04/04 03:35:24;;;;;;;3.70;2.63;;;;;;;2.85;76.78;101023.69;640226;224;27982;-77
2021/04/04 03:37:52;;;;;;;4.57;2.60;;;;;;;3.05;76.43;101021.39;624813;226;24878;-74
2021/04/04 03:40:20;;;;;;;4.50;2.90;;;;;;;2.97;76.04;101018.40;639808;223;24872;-74
2021/04/04 03:42:48;;;;;;;4.33;3.00;;;;;;;2.53;76.19;101023.12;638882;224;25925;-77
2021/04/04 03:45:17;;;;;;;3.83;2.83;;;;;;;2.14;77.64;101024.58;640345;223;24842;-77
2021/04/04 03:47:47;;;;;;;5.75;2.90;;;;;;;2.66;77.18;101030.16;635375;220;32985;-77
2021/04/04 03:50:16;;;;;;;5.92;3.10;;;;;;;2.87;75.92;101028.74;633843;224;33009;-75
2021/04/04 03:52:44;;;;;;;4.33;3.35;;;;;;;3.22;74.30;101026.96;620128;229;32670;-74
2021/04/04 03:55:12;;;;;;;9.50;4.00;;;;;;;2.18;76.86;101033.78;623188;230;23722;-74
2021/04/04 03:57:40;;;;;;;6.37;3.70;;;;;;;2.38;77.59;101037.06;620191;226;32671;-74
2021/04/04 04:00:09;;;;;;;5.07;3.90;;;;;;;1.93;79.98;101043.87;627965;228;23753;-76
2021/04/04 04:02:38;;;;;;;5.67;3.20;;;;;;;1.97;80.50;101047.13;640776;224;27060;-75
2021/04/04 04:05:06;;;;;;;5.40;3.60;;;;;;;2.00;80.46;101049.58;643112;222;24800;-74
2021/04/04 04:07:34;;;;;;;7.17;3.10;;;;;;;1.84;81.02;101048.61;640173;220;28073;-75
2021/04/04 04:10:02;;;;;;;6.07;3.57;;;;;;;1.75;82.02;101055.80;621777;229;24788;-74
2021/04/04 04:12:30;;;;;;;10.20;3.70;;;;;;;1.77;81.82;101054.45;625114;229;25070;-75
2021/04/04 04:14:58;;;;;;;6.70;3.05;;;;;;;2.42;80.25;101046.75;629481;225;32844;-75
2021/04/04 04:17:26;;;;;;;8.20;2.80;;;;;;;2.33;79.63;101033.89;625994;226;23687;-74
2021/04/04 04:19:54;;;;;;;8.00;3.70;;;;;;;2.47;78.34;101034.98;625261;229;24817;-79
2021/04/04 04:22:23;;;;;;;8.10;3.40;;;;;;;2.43;78.11;101025.77;625655;229;24810;-76
2021/04/04 04:24:51;;;;;;;4.50;2.60;;;;;;;2.24;77.93;101015.06;626327;229;24801;-74
2021/04/04 04:27:18;;;;;;;4.47;2.70;;;;;;;2.36;77.34;101019.63;626807;225;24824;-75
2021/04/04 04:29:47;;;;;;;5.13;3.10;;;;;;;2.04;77.20;101013.45;624788;229;24908;-75
2021/04/04 04:32:15;;;;;;;10.20;3.07;;;;;;;2.01;77.81;101015.33;639313;224;24839;-74
2021/04/04 04:34:43;;;;;;;7.70;3.73;;;;;;;2.04;77.35;101014.73;626847;229;24882;-75
2021/04/04 04:37:12;;;;;;;4.83;3.27;;;;;;;1.82;78.43;101015.31;625657;226;24822;-74
2021/04/04 04:39:40;;;;;;;7.93;3.30;;;;;;;1.86;78.93;101012.19;638142;224;25139;-77
2021/04/04 04:42:09;;;;;;;4.83;3.10;;;;;;;1.75;80.06;101024.20;624226;229;24794;-75
2021/04/04 04:44:37;;;;;;;3.20;2.90;;;;;;;1.79;80.08;101023.16;625564;229;26961;-74
2021/04/04 04:47:05;;;;;;;13.43;3.20;;;;;;;1.86;80.25;101023.73;625359;225;24800;-75
2021/04/04 04:49:33;;;;;;;5.73;2.70;;;;;;;1.77;80.55;101030.92;625604;229;25986;-76
2021/04/04 04:52:02;;;;;;;5.95;3.02;;;;;;;2.43;78.75;101025.31;622759;228;32862;-74
2021/04/04 04:54:30;;;;;;;5.30;3.90;;;;;;;1.94;79.22;101027.59;626350;228;23752;-74
2021/04/04 04:56:58;;;;;;;5.65;2.90;;;;;;;2.52;77.68;101024.86;616348;229;33010;-74
2021/04/04 04:59:26;;;;;;;4.10;2.87;;;;;;;2.01;78.36;101021.73;640140;224;23681;-74
2021/04/04 05:01:53;;;;;;;3.53;2.50;;;;;;;1.73;79.21;101026.84;639680;224;24849;-76
2021/04/04 05:04:22;;;;;;;5.53;3.20;;;;;;;2.38;78.54;101022.11;634032;224;32880;-74
2021/04/04 05:06:50;;;;;;;6.20;3.17;;;;;;;2.16;78.45;101021.03;640089;220;23683;-74
2021/04/04 05:09:19;;;;;;;5.30;3.07;;;;;;;2.20;78.70;101017.41;639222;224;25110;-75
2021/04/04 05:11:47;;;;;;;3.53;3.00;;;;;;;2.24;78.72;101020.66;641329;224;24792;-75
2021/04/04 05:14:15;;;;;;;4.30;3.00;;;;;;;2.04;78.85;101016.02;638330;224;24832;-76
2021/04/04 05:16:43;;;;;;;4.67;2.53;;;;;;;2.05;79.20;101021.52;627636;224;24832;-77
2021/04/04 05:19:11;;;;;;;7.67;2.67;;;;;;;1.82;79.62;101023.46;627400;229;29364;-74
2021/04/04 05:21:38;;;;;;;5.20;2.70;;;;;;;1.66;81.01;101024.16;628996;228;24833;-75
2021/04/04 05:24:07;;;;;;;5.33;2.70;;;;;;;1.61;81.52;101027.37;627834;227;24837;-74
2021/04/04 05:26:35;;;;;;;3.70;2.70;;;;;;;1.73;82.29;101034.98;626594;227;24820;-77
2021/04/04 05:29:04;;;;;;;5.90;3.30;;;;;;;2.56;80.30;101037.12;633636;224;32931;-77
2021/04/04 05:31:32;;;;;;;5.40;3.30;;;;;;;2.34;79.20;101024.45;626232;229;23931;-80
2021/04/04 05:34:00;;;;;;;7.35;3.70;;;;;;;3.18;77.25;101020.33;618223;229;33020;-74
2021/04/04 05:36:28;;;;;;;5.07;3.27;;;;;;;2.98;77.37;101016.20;637519;225;23711;-75
2021/04/04 05:38:57;;;;;;;7.83;3.72;;;;;;;3.45;75.58;101013.77;632769;225;32788;-78
2021/04/04 05:41:25;;;;;;;3.97;3.40;;;;;;;3.04;76.44;100997.06;626223;228;23759;-74
2021/04/04 05:43:55;;;;;;;5.65;3.70;;;;;;;3.44;75.57;100995.39;620887;229;32732;-75
2021/04/04 05:46:25;;;;;;;7.50;4.00;;;;;;;3.24;76.39;101005.44;622971;228;23727;-75
2021/04/04 05:48:57;;;;;;;4.47;2.97;;;;;;;3.28;76.72;101015.10;625129;229;24818;-74
2021/04/04 05:51:33;;;;;;;3.83;3.33;;;;;;;3.33;77.13;101012.28;640197;223;24816;-74
2021/04/04 05:54:15;;;;;;;4.30;3.50;;;;;;;3.57;76.73;101018.73;639657;224;24828;-74
2021/04/04 05:56:43;;;;;;;6.70;3.30;;;;;;;3.79;76.04;101017.95;639837;221;24803;-75
2021/04/04 05:59:11;;;;;;;4.67;3.10;;;;;;;3.87;76.16;101016.27;638493;224;25027;-75
2021/04/04 06:01:50;;;;;;;9.03;3.90;;;;;;;3.90;75.88;101014.81;640453;224;24819;-74
2021/04/04 06:04:29;;;;;;;6.90;4.00;;;;;;;4.02;75.55;101013.31;638085;224;24813;-78
2021/04/04 06:07:04;;;;;;;7.03;4.70;;;;;;;4.11;74.93;101011.09;624462;226;24796;-77
2021/04/04 06:09:57;;;;;;;7.23;4.00;;;;;;;4.29;74.91;101007.95;624912;227;24870;-74
2021/04/04 06:12:27;;;;;;;9.93;3.40;;;;;;;4.22;76.55;101020.77;624729;229;24808;-75
2021/04/04 06:14:57;;;;;;;7.40;3.63;;;;;;;4.30;76.47;101020.36;627703;223;24873;-75
2021/04/04 06:17:26;;;;;;;7.40;3.50;;;;;;;4.91;75.80;101016.87;634328;224;32923;-76
2021/04/04 06:20:00;;;;;;;6.95;3.90;;;;;;;5.25;74.18;101008.00;628997;225;32830;-76
2021/04/04 06:22:25;;;;;;;8.60;4.07;;;;;;;4.94;74.83;101011.56;635603;225;23703;-76
2021/04/04 06:24:54;;;;;;;6.17;4.00;;;;;;;5.47;72.91;101007.06;623201;228;32859;-77
2021/04/04 06:27:23;;;;;;;4.97;3.63;;;;;;;5.26;73.79;101011.78;625666;225;23671;-78
2021/04/04 06:32:49;;;;;;;5.70;3.10;;;;;;;5.37;73.56;101011.14;627635;228;24805;-75
2021/04/04 06:35:18;;;;;;;4.87;3.57;;;;;;;5.25;74.36;101017.03;638889;224;30476;-76
2021/04/04 06:38:04;;;;;;;6.77;4.10;;;;;;;5.31;75.09;101020.06;624021;226;24895;-75
2021/04/04 06:40:33;;;;;;;6.47;3.83;;;;;;;5.50;76.22;101030.13;639207;224;24875;-75
2021/04/04 06:43:03;;;;;;;5.67;3.70;;;;;;;5.62;76.28;101031.93;637945;224;24823;-77
2021/04/04 06:45:34;;;;;;;13.53;4.30;;;;;;;5.93;72.99;101025.77;625170;229;24774;-75
2021/04/04 06:48:05;;;;;;;7.13;4.00;;;;;;;5.84;71.87;101014.69;626002;225;24787;-76
2021/04/04 06:50:36;;;;;;;5.73;3.20;;;;;;;5.92;73.18;101009.92;640224;224;24801;-74
2021/04/04 06:53:08;;;;;;;7.70;3.90;;;;;;;5.85;73.83;101018.92;635031;224;26969;-75
2021/04/04 06:55:40;;;;;;;8.30;3.53;;;;;;;6.01;72.78;101019.29;627488;229;24845;-78
2021/04/04 06:58:19;;;;;;;10.77;4.30;;;;;;;6.09;73.54;101018.36;637922;220;24846;-74
2021/04/04 07:00:54;;;;;;;8.00;4.23;;;;;;;6.21;73.62;101025.34;640475;223;24816;-75
2021/04/04 07:03:22;;;;;;;9.47;4.30;;;;;;;6.26;75.15;101031.03;638279;224;24836;-76
2021/04/04 07:05:51;;;;;;;8.63;4.10;;;;;;;6.25;73.42;101031.50;625581;229;28041;-75
2021/04/04 07:08:28;;;;;;;16.20;4.77;;;;;;;6.47;73.59;101027.06;625668;225;24842;-78
2021/04/04 07:11:03;;;;;;;12.00;5.83;;;;;;;6.74;74.74;101026.20;622141;229;24907;-77
2021/04/04 07:13:35;;;;;;;10.00;4.20;;;;;;;6.77;73.72;101018.27;625249;229;24846;-75
2021/04/04 07:16:10;;;;;;;10.30;4.40;;;;;;;6.83;73.08;101021.73;620770;229;24777;-76
2021/04/04 07:18:48;;;;;;;11.13;4.80;;;;;;;6.92;72.99;101022.89;624857;226;24829;-76
2021/04/04 07:21:40;;;;;;;14.53;5.20;;;;;;;7.29;72.51;101018.19;634179;223;33128;-75
2021/04/04 07:24:12;;;;;;;9.53;5.40;;;;;;;7.04;72.63;101009.98;635596;224;23970;-75
2021/04/04 07:26:43;;;;;;;17.35;6.60;;;;;;;7.44;72.71;101020.19;632428;224;32828;-74
2021/04/04 07:29:25;;;;;;;14.10;5.17;;;;;;;7.34;72.33;101016.59;639717;224;23647;-77
2021/04/04 07:31:53;;;;;;;9.37;4.93;;;;;;;7.13;71.59;101014.98;624840;229;24789;-75
2021/04/04 07:34:21;;;;;;;12.93;5.90;;;;;;;6.91;72.29;101010.43;639412;223;24831;-77
2021/04/04 07:36:52;;;;;;;14.33;6.00;;;;;;;7.23;73.55;101016.02;638260;224;24872;-76
2021/04/04 07:39:24;;;;;;;21.43;6.13;;;;;;;7.33;72.38;101013.66;636532;224;24842;-75
2021/04/04 07:41:54;;;;;;;11.53;5.70;;;;;;;7.48;72.63;101012.60;632559;224;32853;-75
2021/04/04 07:44:23;;;;;;;11.23;5.87;;;;;;;7.66;72.75;101010.02;637579;224;24881;-75
2021/04/04 07:46:53;;;;;;;13.93;6.50;;;;;;;7.76;71.88;101001.16;619837;225;34088;-74
2021/04/04 07:49:27;;;;;;;15.60;5.97;;;;;;;7.65;71.74;101004.48;637257;224;25231;-75
2021/04/04 07:51:56;;;;;;;10.17;6.30;;;;;;;7.71;71.63;101014.41;624886;229;24874;-78
2021/04/04 07:54:29;;;;;;;8.00;5.60;;;;;;;7.93;70.94;101011.62;624799;229;24993;-76
2021/04/04 07:56:57;;;;;;;16.03;6.80;;;;;;;8.04;71.21;101009.10;627272;225;25034;-75
2021/04/04 07:59:27;;;;;;;12.30;5.40;;;;;;;8.16;70.86;101001.72;641067;224;24799;-75
2021/04/04 08:01:56;;;;;;;10.73;5.40;;;;;;;8.26;71.00;101003.20;638815;224;24768;-76
2021/04/04 08:04:28;;;;;;;12.67;6.00;;;;;;;8.40;70.41;101002.23;640465;223;24836;-77
2021/04/04 08:06:56;;;;;;;11.10;5.70;;;;;;;8.60;70.64;100999.84;623989;226;24834;-77
2021/04/04 08:09:26;;;;;;;18.67;7.17;;;;;;;8.66;70.03;100992.07;629647;228;24845;-78
2021/04/04 08:11:54;;;;;;;17.50;6.57;;;;;;;8.67;68.41;100998.08;627739;225;24881;-78
2021/04/04 08:14:23;;;;;;;14.70;6.55;;;;;;;8.78;68.03;100978.20;615251;229;32759;-76
2021/04/04 08:16:52;;;;;;;22.40;6.83;;;;;;;9.01;69.34;100986.86;637225;221;25939;-76
2021/04/04 08:19:20;;;;;;;14.65;7.08;;;;;;;9.18;66.71;100975.19;629562;225;32901;-79
2021/04/04 08:21:48;;;;;;;11.17;6.50;;;;;;;9.06;67.75;100976.13;639501;225;23668;-76
2021/04/04 08:24:20;;;;;;;13.10;6.73;;;;;;;9.15;67.09;100978.85;626754;229;24808;-80
2021/04/04 08:26:49;;;;;;;14.07;5.67;;;;;;;9.36;66.10;100971.17;626648;226;24808;-78
2021/04/04 08:29:20;;;;;;;11.70;5.67;;;;;;;9.48;65.94;100967.62;629472;228;24840;-75
2021/04/04 08:31:45;;;;;;;13.43;6.73;;;;;;;9.69;65.68;100978.09;625303;229;27019;-76
2021/04/04 08:34:14;;;;;;;20.43;6.60;;;;;;;9.80;66.47;100972.06;626425;229;24783;-79
2021/04/04 08:36:43;;;;;;;14.60;6.30;;;;;;;9.81;65.79;100958.95;639694;221;27151;-77
2021/04/04 08:39:10;;;;;;;11.30;6.67;;;;;;;10.00;65.73;100969.20;639869;224;24859;-76
2021/04/04 08:41:38;;;;;;;11.63;5.73;;;;;;;9.93;66.00;100963.65;639699;224;24778;-78
2021/04/04 08:44:07;;;;;;;17.20;6.53;;;;;;;10.15;65.18;100964.54;639189;223;29111;-78
2021/04/04 08:46:39;;;;;;;17.80;6.73;;;;;;;10.34;64.82;100962.13;639439;220;24866;-77
2021/04/04 08:49:07;;;;;;;13.80;6.90;;;;;;;10.38;64.69;100955.23;634461;224;32757;-76
2021/04/04 08:51:37;;;;;;;14.00;7.23;;;;;;;10.18;63.33;100947.39;640353;222;23678;-76
2021/04/04 08:54:08;;;;;;;16.60;6.00;;;;;;;10.38;63.33;100942.71;642978;223;24850;-78
2021/04/04 08:56:37;;;;;;;14.87;6.07;;;;;;;10.32;61.96;100934.95;621723;225;43722;-77
2021/04/04 08:59:04;;;;;;;13.87;5.67;;;;;;;10.40;62.45;100927.33;634874;224;29045;-75
2021/04/04 09:01:36;;;;;;;8.93;4.87;;;;;;;10.62;64.01;100931.59;626554;229;24799;-75
2021/04/04 09:04:04;;;;;;;14.00;5.67;;;;;;;10.78;60.58;100925.92;625283;229;24790;-75
2021/04/04 09:06:36;;;;;;;12.40;5.80;;;;;;;10.86;62.03;100924.00;639000;220;24796;-75
2021/04/04 09:09:14;;;;;;;17.23;5.87;;;;;;;10.80;60.46;100914.09;640521;224;24939;-75
2021/04/04 09:11:42;;;;;;;13.73;5.60;;;;;;;10.95;59.57;100907.58;625563;229;29142;-78
2021/04/04 09:14:10;;;;;;;14.07;5.43;;;;;;;11.13;62.45;100916.92;637688;224;24852;-76
2021/04/04 09:16:38;;;;;;;10.50;5.60;;;;;;;11.36;59.44;100906.64;637140;224;24857;-75
2021/04/04 09:19:06;;;;;;;17.27;6.00;;;;;;;11.54;59.99;100909.41;618474;229;27029;-78
2021/04/04 09:21:36;;;;;;;11.70;6.37;;;;;;;11.87;58.21;100893.94;623127;229;24816;-77
2021/04/04 09:24:05;;;;;;;14.20;5.50;;;;;;;12.13;58.37;100894.22;621143;229;24817;-77
2021/04/04 09:26:33;;;;;;;17.30;5.73;;;;;;;11.85;57.98;100890.66;624974;226;23886;-77
2021/04/04 09:29:00;;;;;;;13.87;6.40;;;;;;;12.26;59.07;100889.54;615945;229;40675;-77
2021/04/04 09:31:28;;;;;;;12.70;5.93;;;;;;;12.06;56.55;100882.67;624559;229;25013;-77
2021/04/04 09:34:00;;;;;;;12.20;5.83;;;;;;;12.31;57.68;100882.11;624298;229;24825;-77
2021/04/04 09:36:40;;;;;;;18.30;6.58;;;;;;;12.88;57.14;100880.30;619845;226;43738;-77
2021/04/04 09:39:09;;;;;;;9.20;5.40;;;;;;;12.61;55.63;100877.64;623259;229;23719;-77
2021/04/04 09:41:38;;;;;;;8.57;4.83;;;;;;;12.14;54.39;100858.05;624847;229;24811;-77
2021/04/04 09:44:07;;;;;;;12.10;5.37;;;;;;;12.71;56.07;100868.00;623019;229;24878;-77
2021/04/04 09:48:18;;;;;;;10.23;5.50;;;;;;;13.83;53.01;100849.03;635104;217;32862;-75
2021/04/04 09:50:46;;;;;;;10.77;5.53;;;;;;;14.30;51.44;100843.48;626478;228;23686;-75
2021/04/04 09:53:15;;;;;;;13.60;5.10;;;;;;;13.56;52.99;100839.47;619805;229;23858;-75
2021/04/04 09:55:46;;;;;;;13.97;5.33;;;;;;;13.25;55.26;100852.06;618160;229;24818;-74
2021/04/04 09:58:15;;;;;;;13.00;5.20;;;;;;;13.18;52.60;100840.05;618258;229;23866;-74
2021/04/04 10:00:43;;;;;;;15.37;6.40;;;;;;;13.25;53.08;100840.30;637802;223;24818;-75
2021/04/04 10:03:11;;;;;;;13.00;5.43;;;;;;;13.81;52.90;100833.50;637737;224;24774;-75
2021/04/04 10:05:39;;;;;;;12.87;5.70;;;;;;;14.14;53.55;100837.17;639566;224;23781;-75
2021/04/04 10:08:09;;;;;;;10.63;5.60;;;;;;;14.46;51.46;100833.97;618729;229;23913;-75
2021/04/04 10:10:37;;;;;;;13.20;6.43;;;;;;;14.52;52.74;100823.38;629497;225;30216;-75
2021/04/04 10:13:05;;;;;;;10.27;5.17;;;;;;;14.05;54.38;100826.30;627877;225;24841;-76
2021/04/04 10:15:42;;;;;;;13.80;5.80;;;;;;;13.11;56.02;100826.40;626026;225;23831;-75
2021/04/04 10:18:09;;;;;;;13.87;5.60;;;;;;;13.20;55.62;100838.59;618003;229;24823;-75
2021/04/04 10:20:38;;;;;;;11.27;5.47;;;;;;;13.25;55.70;100835.08;617431;229;24836;-78
2021/04/04 10:23:06;;;;;;;11.23;5.27;;;;;;;13.27;55.19;100826.12;637400;225;24013;-74
2021/04/04 10:25:34;;;;;;;10.40;5.23;;;;;;;14.09;52.15;100830.77;630889;225;43427;-75
2021/04/04 10:28:03;;;;;;;11.00;5.27;;;;;;;13.82;50.93;100815.52;623851;229;24858;-75
2021/04/04 10:30:31;;;;;;;14.97;6.23;;;;;;;13.77;52.20;100816.44;618874;229;24844;-74
2021/04/04 10:33:18;;;;;;;8.90;4.40;;;;;;;14.40;49.89;100806.27;621359;229;24814;-75
2021/04/04 10:35:46;;;;;;;11.60;5.83;;;;;;;14.54;52.77;100813.57;612723;229;24834;-75
2021/04/04 10:38:14;;;;;;;12.27;5.60;;;;;;;14.05;50.76;100808.00;614249;229;24862;-74
2021/04/04 10:40:46;;;;;;;11.73;5.90;;;;;;;14.13;53.17;100808.06;632187;225;32922;-75
2021/04/04 10:43:13;;;;;;;13.68;5.70;;;;;;;14.49;50.02;100790.95;633425;224;32982;-75
2021/04/04 10:45:52;;;;;;;8.30;5.50;;;;;;;14.41;50.78;100800.05;619859;229;22699;-75
2021/04/04 10:48:20;;;;;;;12.77;5.30;;;;;;;14.38;49.78;100795.14;633053;225;23803;-75
2021/04/04 10:50:49;;;;;;;8.40;4.83;;;;;;;14.85;50.03;100791.12;636867;225;24812;-75
2021/04/04 10:53:18;;;;;;;12.90;5.00;;;;;;;15.10;49.15;100784.64;637570;225;23838;-75
2021/04/04 10:55:45;;;;;;;12.83;5.50;;;;;;;14.78;49.68;100774.91;637856;224;23854;-75
2021/04/04 10:58:14;;;;;;;12.47;5.50;;;;;;;14.96;48.95;100770.86;624288;225;23884;-75
2021/04/04 11:00:43;;;;;;;12.37;5.23;;;;;;;15.05;48.92;100768.08;639319;224;24780;-75
2021/04/04 11:03:11;;;;;;;9.47;5.00;;;;;;;15.70;50.70;100764.73;638407;224;23797;-75
2021/04/04 11:05:39;;;;;;;9.03;4.80;;;;;;;15.26;49.44;100761.58;638225;224;23814;-75
2021/04/04 11:08:07;;;;;;;10.10;4.83;;;;;;;14.55;48.43;100756.31;638753;225;24822;-75
2021/04/04 11:10:35;;;;;;;10.23;4.40;;;;;;;14.15;50.92;100755.09;616273;228;24886;-74
2021/04/04 11:13:03;;;;;;;8.90;4.57;;;;;;;14.36;53.02;100772.23;616065;229;23857;-75
2021/04/04 11:15:31;;;;;;;8.27;4.23;;;;;;;14.82;51.50;100767.05;617901;229;23844;-75
2021/04/04 11:17:59;;;;;;;17.20;5.70;;;;;;;14.40;51.23;100765.70;617533;230;27066;-75
2021/04/04 11:20:27;;;;;;;12.40;5.00;;;;;;;14.39;49.78;100766.68;634422;225;23800;-75
2021/04/04 11:22:55;;;;;;;13.00;5.70;;;;;;;14.36;50.37;100761.77;636465;225;23852;-75
2021/04/04 11:25:29;;;;;;;7.50;4.10;;;;;;;14.78;49.08;100757.39;638637;225;23818;-75
2021/04/04 11:27:57;;;;;;;11.80;5.70;;;;;;;15.32;50.49;100756.49;637022;220;23797;-75
2021/04/04 11:30:36;;;;;;;7.07;4.80;;;;;;;15.25;48.81;100749.45;637093;225;23863;-75
2021/04/04 11:33:21;;;;;;;11.50;5.67;;;;;;;14.47;51.47;100747.92;633949;225;23813;-73
2021/04/04 11:35:58;;;;;;;13.23;5.20;;;;;;;13.29;51.95;100760.66;614700;229;24888;-73
2021/04/04 11:38:26;;;;;;;11.97;4.80;;;;;;;13.21;51.06;100746.20;616683;230;26072;-73
2021/04/04 11:41:12;;;;;;;11.93;5.53;;;;;;;13.23;50.82;100742.50;638300;223;23815;-73
2021/04/04 11:43:39;;;;;;;13.03;5.07;;;;;;;13.51;50.63;100734.54;620838;229;24903;-74
2021/04/04 11:46:26;;;;;;;10.83;5.07;;;;;;;14.40;48.51;100725.14;617474;229;24832;-74